createdAt,value
2022-12-24T00:03:24.918Z,80.10
2022-12-24T00:08:28.488Z,59.23
2022-12-24T00:13:32.103Z,60.50
2022-12-24T00:18:38.692Z,60.17
2022-12-24T00:23:47.143Z,57.43
2022-12-24T00:28:50.828Z,64.20
2022-12-24T00:33:54.404Z,64.93
2022-12-24T00:38:58.055Z,66.80
2022-12-24T00:44:06.284Z,71.97
2022-12-24T00:49:11.783Z,68.73
2022-12-24T00:54:15.561Z,51.00
2022-12-24T00:59:19.002Z,52.10
2022-12-24T01:04:40.746Z,46.13
2022-12-24T01:09:44.278Z,55.63
2022-12-24T01:14:47.601Z,47.67
2022-12-24T01:19:51.422Z,41.70
2022-12-24T01:24:54.606Z,46.40
2022-12-24T01:29:58.744Z,58.13
2022-12-24T01:35:02.236Z,59.40
2022-12-24T01:40:28.892Z,52.57
2022-12-24T01:45:38.245Z,56.97
2022-12-24T01:50:41.729Z,55.17
2022-12-24T01:55:46.884Z,57.13
2022-12-24T02:00:50.424Z,47.63
2022-12-24T02:05:56.420Z,52.23
2022-12-24T02:11:00.031Z,45.37
2022-12-24T02:16:27.827Z,40.67
2022-12-24T02:21:33.733Z,46.00
2022-12-24T02:27:00.044Z,43.67
2022-12-24T02:32:09.622Z,42.53
2022-12-24T02:37:26.805Z,34.03
2022-12-24T02:42:38.829Z,41.30
2022-12-24T02:47:44.342Z,31.87
2022-12-24T02:52:48.701Z,25.57
2022-12-24T02:58:22.596Z,28.50
2022-12-24T03:04:02.397Z,26.07
2022-12-24T03:09:34.229Z,23.70
2022-12-24T03:14:40.053Z,26.13
2022-12-24T03:19:43.783Z,22.80
2022-12-24T03:24:47.087Z,19.03
2022-12-24T03:29:50.304Z,23.97
2022-12-24T03:34:53.564Z,22.27
2022-12-24T03:39:57.002Z,30.27
2022-12-24T03:45:00.596Z,28.23
2022-12-24T03:50:04.182Z,24.47
2022-12-24T03:55:08.064Z,29.50
2022-12-24T04:00:11.742Z,22.90
2022-12-24T04:05:21.131Z,22.50
2022-12-24T04:10:24.566Z,22.80
2022-12-24T04:15:28.028Z,23.13
2022-12-24T04:20:31.526Z,32.27
2022-12-24T04:25:35.562Z,23.50
2022-12-24T04:30:42.981Z,23.77
2022-12-24T04:35:46.402Z,23.03
2022-12-24T04:40:49.850Z,20.83
2022-12-24T04:45:53.379Z,22.03
2022-12-24T04:50:57.088Z,22.60
2022-12-24T04:56:00.805Z,26.03
2022-12-24T05:01:09.253Z,27.17
2022-12-24T05:06:17.678Z,26.07
2022-12-24T05:11:21.137Z,26.50
2022-12-24T05:16:25.252Z,26.70
2022-12-24T05:21:28.567Z,26.07
2022-12-24T05:26:34.639Z,28.17
2022-12-24T05:31:40.663Z,28.33
2022-12-24T05:36:44.850Z,23.00
2022-12-24T05:41:48.614Z,20.37
2022-12-24T05:46:52.509Z,31.20
2022-12-24T05:51:55.685Z,20.10
2022-12-24T05:56:59.112Z,21.27
2022-12-24T06:02:02.664Z,22.17
2022-12-24T06:07:06.197Z,25.70
2022-12-24T06:12:09.737Z,23.17
2022-12-24T06:17:13.170Z,23.43
2022-12-24T06:22:16.828Z,25.40
2022-12-24T06:27:20.214Z,25.20
2022-12-24T06:32:23.496Z,25.20
2022-12-24T06:37:26.855Z,21.47
2022-12-24T06:42:30.059Z,21.80
2022-12-24T06:47:33.458Z,24.27
2022-12-24T06:52:37.202Z,26.40
2022-12-24T06:57:41.103Z,21.80
2022-12-24T07:02:45.114Z,19.93
2022-12-24T07:07:49.049Z,21.70
2022-12-24T07:12:52.256Z,19.73
2022-12-24T07:17:55.666Z,23.33
2022-12-24T07:22:58.833Z,21.40
2022-12-24T07:28:02.045Z,20.17
2022-12-24T07:33:05.326Z,22.33
2022-12-24T07:38:10.293Z,24.23
2022-12-24T07:43:14.417Z,24.87
2022-12-24T07:48:17.690Z,25.80
2022-12-24T07:53:21.286Z,27.60
2022-12-24T07:58:25.562Z,24.47
2022-12-24T08:03:29.601Z,21.93
2022-12-24T08:08:33.136Z,22.87
2022-12-24T08:13:36.616Z,25.47
2022-12-24T08:18:39.905Z,19.03
2022-12-24T08:23:43.405Z,23.87
2022-12-24T08:28:46.893Z,22.23
2022-12-24T08:33:50.071Z,24.83
2022-12-24T08:38:53.343Z,21.67
2022-12-24T08:43:56.578Z,24.47
2022-12-24T08:49:00.016Z,20.20
2022-12-24T08:54:03.602Z,22.47
2022-12-24T08:59:06.887Z,23.23
2022-12-24T09:04:10.349Z,24.03
2022-12-24T09:09:14.379Z,29.53
2022-12-24T09:14:17.663Z,28.23
2022-12-24T09:19:28.180Z,22.77
2022-12-24T09:24:35.967Z,24.53
2022-12-24T09:29:41.653Z,25.83
2022-12-24T09:34:45.708Z,20.73
2022-12-24T09:39:49.427Z,32.73
2022-12-24T09:45:07.215Z,25.23
2022-12-24T09:51:27.405Z,33.07
2022-12-24T09:56:50.094Z,25.67
2022-12-24T10:01:56.270Z,35.83
2022-12-24T10:07:34.281Z,32.17
2022-12-24T10:13:08.741Z,32.20
2022-12-24T10:18:35.613Z,46.40
2022-12-24T10:24:03.467Z,34.87
2022-12-24T10:29:26.857Z,30.13
2022-12-24T10:34:35.180Z,36.63
2022-12-24T10:39:39.006Z,33.70
2022-12-24T10:44:42.436Z,36.93
2022-12-24T10:50:07.952Z,33.33
2022-12-24T10:55:20.845Z,29.57
2022-12-24T11:00:28.601Z,30.17
2022-12-24T11:05:37.836Z,30.03
2022-12-24T11:10:45.557Z,33.90
2022-12-24T11:15:53.148Z,35.93
2022-12-24T11:21:00.193Z,34.50
2022-12-24T11:26:04.035Z,28.77
2022-12-24T11:31:19.978Z,27.23
2022-12-24T11:36:26.953Z,33.40
2022-12-24T11:41:38.003Z,31.77
2022-12-24T11:46:46.773Z,31.83
2022-12-24T11:52:12.798Z,34.77
2022-12-24T11:57:21.462Z,36.23
2022-12-24T12:02:31.088Z,35.13
2022-12-24T12:07:37.578Z,38.40
2022-12-24T12:12:55.553Z,31.80
2022-12-24T12:18:16.683Z,37.67
2022-12-24T12:23:39.021Z,32.43
2022-12-24T12:28:46.755Z,29.90
2022-12-24T12:33:57.728Z,37.03
2022-12-24T12:39:02.323Z,32.63
2022-12-24T12:44:25.913Z,35.67
2022-12-24T12:49:53.433Z,34.27
2022-12-24T12:55:32.114Z,33.80
2022-12-24T13:00:41.581Z,32.67
2022-12-24T13:06:26.863Z,37.50
2022-12-24T13:11:55.224Z,28.63
2022-12-24T13:17:41.420Z,33.63
2022-12-24T13:22:59.429Z,34.30
2022-12-24T13:28:21.183Z,36.97
2022-12-24T13:33:40.095Z,35.73
2022-12-24T13:38:53.104Z,32.40
2022-12-24T13:44:18.154Z,40.67
2022-12-24T13:49:36.674Z,45.67
2022-12-24T13:55:01.038Z,46.93
2022-12-24T14:00:22.294Z,47.53
2022-12-24T14:05:36.496Z,43.57
2022-12-24T14:10:56.803Z,45.53
2022-12-24T14:16:05.398Z,42.90
2022-12-24T14:21:22.966Z,44.30
2022-12-24T14:26:36.784Z,53.07
2022-12-24T14:31:59.070Z,44.20
2022-12-24T14:37:05.421Z,46.83
2022-12-24T14:42:28.096Z,44.70
2022-12-24T14:47:59.373Z,49.33
2022-12-24T14:53:38.124Z,48.57
2022-12-24T14:58:43.153Z,48.90
2022-12-24T15:03:48.116Z,52.20
2022-12-24T15:08:52.839Z,84.83
2022-12-24T15:14:04.727Z,169.20
2022-12-24T15:19:23.009Z,69.53
2022-12-24T15:24:32.826Z,51.63
2022-12-24T15:29:45.523Z,54.90
2022-12-24T15:34:51.032Z,54.50
2022-12-24T15:40:11.691Z,51.97
2022-12-24T15:45:28.960Z,104.67
2022-12-24T15:50:35.357Z,99.27
2022-12-24T15:55:46.534Z,74.63
2022-12-24T16:01:05.222Z,62.07
2022-12-24T16:06:12.114Z,56.20
2022-12-24T16:11:24.311Z,52.87
2022-12-24T16:16:37.670Z,54.03
2022-12-24T16:21:43.144Z,59.40
2022-12-24T16:26:47.384Z,53.80
2022-12-24T16:31:58.380Z,55.87
2022-12-24T16:37:02.190Z,54.53
2022-12-24T16:42:24.553Z,50.70
2022-12-24T16:47:41.799Z,49.97
2022-12-24T16:52:46.139Z,86.93
2022-12-24T16:57:49.492Z,62.90
2022-12-24T17:02:54.129Z,54.67
2022-12-24T17:08:01.404Z,71.07
2022-12-24T17:13:05.373Z,56.83
2022-12-24T17:18:08.856Z,57.53
2022-12-24T17:23:12.003Z,57.70
2022-12-24T17:28:18.038Z,58.63
2022-12-24T17:33:21.675Z,66.80
2022-12-24T17:38:24.775Z,64.17
2022-12-24T17:43:28.310Z,72.33
2022-12-24T17:48:31.776Z,69.60
2022-12-24T17:53:40.169Z,67.33
2022-12-24T17:58:45.591Z,61.03
2022-12-24T18:03:52.084Z,60.00
2022-12-24T18:08:56.659Z,62.00
2022-12-24T18:14:01.756Z,60.47
2022-12-24T18:19:06.942Z,66.37
2022-12-24T18:24:12.619Z,77.17
2022-12-24T18:29:17.403Z,63.23
2022-12-24T18:34:20.931Z,68.70
2022-12-24T18:39:24.520Z,67.53
2022-12-24T18:44:27.704Z,66.33
2022-12-24T18:49:31.159Z,74.97
2022-12-24T18:54:34.669Z,68.57
2022-12-24T18:59:39.468Z,77.97
2022-12-24T19:04:43.240Z,69.87
2022-12-24T19:09:48.789Z,67.97
2022-12-24T19:14:52.403Z,71.13
2022-12-24T19:19:56.645Z,69.93
2022-12-24T19:25:00.384Z,62.83
2022-12-24T19:30:05.272Z,62.07
2022-12-24T19:35:09.262Z,70.67
2022-12-24T19:40:13.619Z,70.23
2022-12-24T19:45:17.086Z,71.30
2022-12-24T19:50:21.736Z,74.47
2022-12-24T19:55:25.786Z,73.07
2022-12-24T20:00:29.329Z,66.00
2022-12-24T20:05:32.895Z,70.77
2022-12-24T20:10:45.922Z,63.70
2022-12-24T20:15:49.715Z,55.40
2022-12-24T20:20:53.592Z,53.33
2022-12-24T20:25:59.757Z,56.67
2022-12-24T20:31:14.266Z,69.43
2022-12-24T20:36:21.517Z,70.37
2022-12-24T20:41:27.966Z,53.63
2022-12-24T20:46:31.877Z,51.73
2022-12-24T20:51:35.815Z,54.27
2022-12-24T20:56:40.998Z,47.40
2022-12-24T21:01:45.485Z,44.90
2022-12-24T21:06:48.896Z,47.27
2022-12-24T21:11:53.267Z,50.33
2022-12-24T21:16:58.487Z,42.17
2022-12-24T21:22:03.455Z,49.50
2022-12-24T21:27:08.200Z,47.97
2022-12-24T21:32:13.517Z,49.07
2022-12-24T21:37:17.505Z,54.87
2022-12-24T21:42:21.316Z,58.87
2022-12-24T21:47:26.005Z,56.97
2022-12-24T21:52:30.817Z,55.50
2022-12-24T21:57:54.055Z,56.50
2022-12-24T22:02:59.194Z,55.13
2022-12-24T22:08:23.544Z,58.90
2022-12-24T22:13:29.928Z,59.10
2022-12-24T22:18:34.675Z,72.60
2022-12-24T22:23:42.237Z,72.73
2022-12-24T22:28:46.888Z,66.33
2022-12-24T22:33:50.494Z,98.70
2022-12-24T22:38:54.069Z,53.07
2022-12-24T22:43:58.409Z,49.27
2022-12-24T22:49:03.534Z,46.00
2022-12-24T22:54:07.290Z,46.47
2022-12-24T22:59:14.453Z,46.63
2022-12-24T23:04:17.762Z,45.27
2022-12-24T23:09:21.134Z,47.10
2022-12-24T23:14:43.332Z,43.23
2022-12-24T23:19:46.507Z,35.63
2022-12-24T23:24:49.658Z,40.30
2022-12-24T23:29:52.858Z,40.33
2022-12-24T23:34:56.349Z,41.37
2022-12-24T23:39:59.554Z,39.83
2022-12-24T23:45:02.938Z,132.33
2022-12-24T23:50:06.826Z,45.03
2022-12-24T23:55:10.406Z,42.07
